createdAt,value
2018-01-02T00:00:27.726Z,44.69
2018-01-02T00:01:36.926Z,44.67
2018-01-02T00:02:45.606Z,44.69
2018-01-02T00:03:54.555Z,44.86
2018-01-02T00:05:03.537Z,44.69
2018-01-02T00:06:12.743Z,44.86
2018-01-02T00:07:21.933Z,44.67
2018-01-02T00:08:30.875Z,44.67
2018-01-02T00:09:39.810Z,44.67
2018-01-02T00:10:49.010Z,44.67
2018-01-02T00:11:57.945Z,44.86
2018-01-02T00:13:06.879Z,45.05
2018-01-02T00:14:15.554Z,44.86
2018-01-02T00:15:24.546Z,44.67
2018-01-02T00:16:33.736Z,44.96
2018-01-02T00:17:42.952Z,44.86
2018-01-02T00:18:52.419Z,44.86
2018-01-02T00:20:01.412Z,44.86
2018-01-02T00:21:10.623Z,44.96
2018-01-02T00:22:20.096Z,44.76
2018-01-02T00:23:29.293Z,45.05
2018-01-02T00:24:37.965Z,45.05
2018-01-02T00:25:46.650Z,44.96
2018-01-02T00:26:56.101Z,44.86
2018-01-02T00:28:05.302Z,44.86
2018-01-02T00:29:14.495Z,44.76
2018-01-02T00:30:23.432Z,44.86
2018-01-02T00:31:32.099Z,44.76
2018-01-02T00:32:41.031Z,44.86
2018-01-02T00:33:49.961Z,44.96
2018-01-02T00:34:58.645Z,44.96
2018-01-02T00:36:07.839Z,44.86
2018-01-02T00:37:16.780Z,44.76
2018-01-02T00:38:25.710Z,45.05
2018-01-02T00:39:34.686Z,45.05
2018-01-02T00:40:43.370Z,44.76
2018-01-02T00:41:52.037Z,44.86
2018-01-02T00:43:01.245Z,45.05
2018-01-02T00:44:09.927Z,44.86
2018-01-02T00:45:18.866Z,45.05
2018-01-02T00:46:27.809Z,44.76
2018-01-02T00:47:36.808Z,44.76
2018-01-02T00:48:45.499Z,44.67
2018-01-02T00:49:54.963Z,44.86
2018-01-02T00:51:04.153Z,44.86
2018-01-02T00:52:12.827Z,44.96
2018-01-02T00:53:21.508Z,44.86
2018-01-02T00:54:30.438Z,44.86
2018-01-02T00:55:39.392Z,44.86
2018-01-02T00:56:48.066Z,44.86
2018-01-02T00:57:57.009Z,44.96
2018-01-02T00:59:06.730Z,44.86
2018-01-02T01:00:15.415Z,44.86
2018-01-02T01:01:24.341Z,44.76
2018-01-02T01:02:33.018Z,44.96
2018-01-02T01:03:41.953Z,44.96
2018-01-02T01:04:50.884Z,44.86
2018-01-02T01:05:59.828Z,44.67
2018-01-02T01:07:08.512Z,44.76
2018-01-02T01:08:17.196Z,44.67
2018-01-02T01:09:26.649Z,44.67
2018-01-02T01:10:35.585Z,44.76
2018-01-02T01:11:44.522Z,44.28
2018-01-02T01:12:53.207Z,44.96
2018-01-02T01:16:35.331Z,44.96
2018-01-02T01:17:44.281Z,44.76
2018-01-02T01:18:53.215Z,44.48
2018-01-02T01:20:02.418Z,44.86
2018-01-02T01:21:12.131Z,44.57
2018-01-02T01:22:21.593Z,44.57
2018-01-02T01:26:02.870Z,44.48
2018-01-02T01:27:11.815Z,44.48
2018-01-02T01:28:20.496Z,44.48
2018-01-02T01:29:29.688Z,44.48
2018-01-02T01:30:38.636Z,44.48
2018-01-02T01:31:48.351Z,44.48
2018-01-02T01:32:57.803Z,44.48
2018-01-02T01:34:07.020Z,44.38
2018-01-02T01:35:15.957Z,44.38
2018-01-02T01:36:24.628Z,44.48
2018-01-02T01:37:33.302Z,44.48
2018-01-02T01:38:42.499Z,44.48
2018-01-02T01:39:51.425Z,44.57
2018-01-02T01:41:00.366Z,44.38
2018-01-02T01:42:09.310Z,44.57
2018-01-02T01:43:17.985Z,44.57
2018-01-02T01:44:26.931Z,44.48
2018-01-02T01:45:36.133Z,44.48
2018-01-02T01:46:44.815Z,44.48
2018-01-02T01:47:53.839Z,44.38
2018-01-02T01:49:03.294Z,44.57
2018-01-02T01:50:12.487Z,44.57
2018-01-02T01:51:21.430Z,44.57
2018-01-02T01:52:30.628Z,44.67
2018-01-02T01:53:39.558Z,44.67
2018-01-02T01:54:48.236Z,44.57
2018-01-02T01:55:57.171Z,44.57
2018-01-02T01:57:06.120Z,44.67
2018-01-02T01:58:15.055Z,44.57
2018-01-02T01:59:24.255Z,44.67
2018-01-02T02:00:34.167Z,44.57
2018-01-02T02:01:43.368Z,44.48
2018-01-02T02:02:52.037Z,44.76
2018-01-02T02:04:00.967Z,44.76
2018-01-02T02:05:09.912Z,44.67
2018-01-02T02:06:18.853Z,44.67
2018-01-02T02:07:27.789Z,44.86
2018-01-02T02:08:36.721Z,44.76
2018-01-02T02:09:45.662Z,44.76
2018-01-02T02:10:54.848Z,44.76
2018-01-02T02:12:04.051Z,44.76
2018-01-02T02:13:13.259Z,44.76
2018-01-02T02:14:22.188Z,44.76
2018-01-02T02:15:31.123Z,44.48
2018-01-02T02:16:40.061Z,44.67
2018-01-02T02:17:49.257Z,44.48
2018-01-02T02:18:58.469Z,44.76
2018-01-02T02:20:07.245Z,44.57
2018-01-02T02:21:16.699Z,44.86
2018-01-02T02:22:25.369Z,44.57
2018-01-02T02:23:34.557Z,44.48
2018-01-02T02:24:43.502Z,44.57
2018-01-02T02:25:52.428Z,44.28
2018-01-02T02:27:01.373Z,44.48
2018-01-02T02:28:10.570Z,44.57
2018-01-02T02:29:19.508Z,44.57
2018-01-02T02:30:28.186Z,44.38
2018-01-02T02:31:37.120Z,44.09
2018-01-02T02:32:46.319Z,43.99
2018-01-02T02:33:55.250Z,44.09
2018-01-02T02:35:04.192Z,44.19
2018-01-02T02:36:13.138Z,44.28
2018-01-02T02:37:22.084Z,44.19
2018-01-02T02:38:30.754Z,44.09
2018-01-02T02:39:39.697Z,44.28
2018-01-02T02:40:48.645Z,44.19
2018-01-02T02:41:57.317Z,44.19
2018-01-02T02:43:06.520Z,44.28
2018-01-02T02:44:15.720Z,44.09
2018-01-02T02:45:24.400Z,44.09
2018-01-02T02:46:33.329Z,44.19
2018-01-02T02:47:42.263Z,44.09
2018-01-02T02:48:51.257Z,44.19
2018-01-02T02:50:00.194Z,44.19
2018-01-02T02:51:09.144Z,44.09
2018-01-02T02:52:18.097Z,44.19
2018-01-02T02:53:27.028Z,44.09
2018-01-02T02:54:35.968Z,44.19
2018-01-02T02:55:44.659Z,44.09
2018-01-02T02:56:53.435Z,44.09
2018-01-02T02:58:02.633Z,43.99
2018-01-02T02:59:11.824Z,44.09
2018-01-02T03:00:20.498Z,44.19
2018-01-02T03:01:29.948Z,43.99
2018-01-02T03:02:38.897Z,44.09
2018-01-02T03:03:47.566Z,44.09
2018-01-02T03:04:56.513Z,44.09
2018-01-02T03:06:05.452Z,43.9
2018-01-02T03:07:14.390Z,44.09
2018-01-02T03:08:23.330Z,44.38
2018-01-02T03:09:32.262Z,43.9
2018-01-02T03:10:47.990Z,43.9
2018-01-02T03:11:57.283Z,44.38
2018-01-02T03:13:05.965Z,43.9
2018-01-02T03:14:15.152Z,44.09
2018-01-02T03:15:23.816Z,44.09
2018-01-02T03:16:32.753Z,43.99
2018-01-02T03:17:41.700Z,44.09
2018-01-02T03:18:50.890Z,44.28
2018-01-02T03:19:59.827Z,43.99
2018-01-02T03:21:08.497Z,43.99
2018-01-02T03:22:17.172Z,43.99
2018-01-02T03:23:26.115Z,44.09
2018-01-02T03:24:34.791Z,44.28
2018-01-02T03:25:43.719Z,44.19
2018-01-02T03:26:52.647Z,44.28
2018-01-02T03:28:01.323Z,44.09
2018-01-02T03:29:10.263Z,43.9
2018-01-02T03:30:19.484Z,43.9
2018-01-02T03:31:28.418Z,43.9
2018-01-02T03:32:37.093Z,43.99
2018-01-02T03:33:46.038Z,43.9
2018-01-02T03:34:55.483Z,43.99
2018-01-02T03:36:04.408Z,43.99
2018-01-02T03:37:13.083Z,43.99
2018-01-02T03:38:21.843Z,43.99
2018-01-02T03:39:31.044Z,43.99
2018-01-02T03:40:39.986Z,43.99
2018-01-02T03:41:49.438Z,44.09
2018-01-02T03:42:58.377Z,43.99
2018-01-02T03:44:07.310Z,43.99
2018-01-02T03:45:16.244Z,43.99
2018-01-02T03:46:25.961Z,44.09
2018-01-02T03:47:35.160Z,44.09
2018-01-02T03:48:44.103Z,43.99
2018-01-02T03:49:53.313Z,44.09
2018-01-02T03:51:01.986Z,43.99
2018-01-02T03:52:10.919Z,43.99
2018-01-02T03:53:19.856Z,44.09
2018-01-02T03:54:29.052Z,44.09
2018-01-02T03:55:38.246Z,43.99
2018-01-02T03:56:46.925Z,44.09
2018-01-02T03:57:56.128Z,44.09
2018-01-02T03:59:05.326Z,44.09
2018-01-02T04:00:14.520Z,43.99
2018-01-02T04:01:23.477Z,44.09
2018-01-02T04:02:32.147Z,44.28
2018-01-02T04:03:41.603Z,44.28
2018-01-02T04:04:50.541Z,43.8
2018-01-02T04:05:59.742Z,44.19
2018-01-02T04:07:08.952Z,43.8
2018-01-02T04:08:18.161Z,43.8
2018-01-02T04:09:26.898Z,43.71
2018-01-02T04:10:35.582Z,43.71
2018-01-02T04:11:44.793Z,43.71
2018-01-02T04:12:53.994Z,43.61
2018-01-02T04:14:03.192Z,43.71
2018-01-02T04:15:12.129Z,43.71
2018-01-02T04:16:21.067Z,43.71
2018-01-02T04:17:29.995Z,43.71
2018-01-02T04:18:38.954Z,43.8
2018-01-02T04:19:47.897Z,43.71
2018-01-02T04:20:56.830Z,43.8
2018-01-02T04:22:05.514Z,43.71
2018-01-02T04:23:14.455Z,43.8
2018-01-02T04:24:23.664Z,43.8
2018-01-02T04:25:32.858Z,43.71
2018-01-02T04:26:41.532Z,43.71
2018-01-02T04:27:50.723Z,43.8
2018-01-02T04:28:59.656Z,43.9
2018-01-02T04:30:08.860Z,43.8
2018-01-02T04:31:18.313Z,43.8
2018-01-02T04:32:26.985Z,43.9
2018-01-02T04:33:36.461Z,43.8
2018-01-02T04:34:45.148Z,43.71
2018-01-02T04:35:54.078Z,43.71
2018-01-02T04:37:03.035Z,43.9
2018-01-02T04:38:12.228Z,43.99
2018-01-02T04:39:21.160Z,43.9
2018-01-02T04:40:30.096Z,43.9
2018-01-02T04:41:39.569Z,43.9
2018-01-02T04:42:49.041Z,43.99
2018-01-02T04:43:57.738Z,43.99
2018-01-02T04:45:06.679Z,43.99
2018-01-02T04:46:16.155Z,43.99
2018-01-02T04:47:24.827Z,43.9
2018-01-02T04:48:33.759Z,43.9
2018-01-02T04:49:42.423Z,44.09
2018-01-02T04:50:51.358Z,43.99
2018-01-02T04:52:00.582Z,43.99
2018-01-02T04:53:09.851Z,43.99
2018-01-02T04:54:18.520Z,43.99
2018-01-02T04:55:27.199Z,43.99
2018-01-02T04:56:36.410Z,43.8
2018-01-02T04:57:45.866Z,44.09
2018-01-02T04:58:54.819Z,43.8
2018-01-02T05:00:04.028Z,43.51
2018-01-02T05:01:13.229Z,43.51
2018-01-02T05:02:22.165Z,43.41
2018-01-02T05:03:31.915Z,43.8
2018-01-02T05:04:41.410Z,43.8
2018-01-02T05:05:50.606Z,43.8
2018-01-02T05:06:59.544Z,43.41
2018-01-02T05:08:08.498Z,43.71
2018-01-02T05:09:17.955Z,43.41
2018-01-02T05:10:26.906Z,43.41
2018-01-02T05:11:35.578Z,43.41
2018-01-02T05:12:44.777Z,43.41
2018-01-02T05:13:53.996Z,43.51
2018-01-02T05:15:02.925Z,43.41
2018-01-02T05:16:12.135Z,43.51
2018-01-02T05:17:21.080Z,43.51
2018-01-02T05:18:30.036Z,43.51
2018-01-02T05:19:38.975Z,43.51
2018-01-02T05:20:47.916Z,43.32
2018-01-02T05:21:56.598Z,43.51
2018-01-02T05:23:05.277Z,43.51
2018-01-02T05:24:14.213Z,43.51
2018-01-02T05:25:23.173Z,43.51
2018-01-02T05:26:32.100Z,43.51
2018-01-02T05:27:40.779Z,43.51
2018-01-02T05:28:49.989Z,43.51
2018-01-02T05:29:59.448Z,43.51
2018-01-02T05:31:08.128Z,43.51
2018-01-02T05:32:16.823Z,43.51
2018-01-02T05:33:25.763Z,43.51
2018-01-02T05:34:34.703Z,43.41
2018-01-02T05:35:43.650Z,43.71
2018-01-02T05:36:52.598Z,43.51
2018-01-02T05:38:01.894Z,43.41
2018-01-02T05:39:11.091Z,43.51
2018-01-02T05:40:20.048Z,43.61
2018-01-02T05:41:29.758Z,43.41
2018-01-02T05:42:39.219Z,43.51
2018-01-02T05:43:47.910Z,43.51
2018-01-02T05:44:56.584Z,43.51
2018-01-02T05:46:05.785Z,43.51
2018-01-02T05:47:14.728Z,43.41
2018-01-02T05:48:24.219Z,43.51
2018-01-02T05:49:33.684Z,43.4
2018-01-02T05:50:42.877Z,43.41
2018-01-02T05:51:52.335Z,43.41
2018-01-02T05:53:01.284Z,43.61
2018-01-02T05:54:10.472Z,43.51
2018-01-02T05:55:19.940Z,43.41
2018-01-02T05:56:28.615Z,43.51
2018-01-02T05:57:37.293Z,43.49
2018-01-02T05:58:45.967Z,43.51
2018-01-02T05:59:54.641Z,43.41
2018-01-02T06:01:04.111Z,43.61
2018-01-02T06:02:13.312Z,43.51
2018-01-02T06:03:21.983Z,43.51
2018-01-02T06:04:30.676Z,43.61
2018-01-02T06:05:39.602Z,43.61
2018-01-02T06:06:48.815Z,43.61
2018-01-02T06:07:58.534Z,43.61
2018-01-02T06:09:07.745Z,43.61
2018-01-02T06:10:16.420Z,43.61
2018-01-02T06:11:25.897Z,43.51
2018-01-02T06:12:34.856Z,43.51
2018-01-02T06:13:44.314Z,43.51
2018-01-02T06:14:53.023Z,43.61
2018-01-02T06:16:01.959Z,43.71
2018-01-02T06:17:10.628Z,43.61
2018-01-02T06:18:19.553Z,43.71
2018-01-02T06:19:28.494Z,43.71
2018-01-02T06:20:38.019Z,43.59
2018-01-02T06:21:47.212Z,43.61
2018-01-02T06:22:56.149Z,43.71
2018-01-02T06:24:05.603Z,43.61
2018-01-02T06:25:14.804Z,43.71
2018-01-02T06:26:23.738Z,43.61
2018-01-02T06:27:32.410Z,43.71
2018-01-02T06:28:41.855Z,43.61
2018-01-02T06:29:50.798Z,43.59
2018-01-02T06:31:00.257Z,43.68
2018-01-02T06:32:08.943Z,43.59
2018-01-02T06:33:18.158Z,43.61
2018-01-02T06:34:27.097Z,43.59
2018-01-02T06:35:35.781Z,43.68
2018-01-02T06:36:44.718Z,43.51
2018-01-02T06:37:53.401Z,43.59
2018-01-02T06:39:02.871Z,43.59
2018-01-02T06:40:11.811Z,43.51
2018-01-02T06:41:21.017Z,43.78
2018-01-02T06:42:29.984Z,43.51
2018-01-02T06:43:38.663Z,43.4
2018-01-02T06:44:47.344Z,43.32
2018-01-02T06:45:56.557Z,43.71
2018-01-02T06:47:05.229Z,43.4
2018-01-02T06:48:14.430Z,43.4
2018-01-02T06:49:23.113Z,43.59
2018-01-02T06:50:32.324Z,43.49
2018-01-02T06:51:41.005Z,43.59
2018-01-02T06:52:50.202Z,43.3
2018-01-02T06:53:59.151Z,43.59
2018-01-02T06:55:07.826Z,43.3
2018-01-02T06:56:16.503Z,43.4
2018-01-02T06:57:25.447Z,43.49
2018-01-02T06:58:34.391Z,43.71
2018-01-02T06:59:43.863Z,43.4
2018-01-02T07:00:53.324Z,43.4
2018-01-02T07:02:02.516Z,43.41
2018-01-02T07:03:11.465Z,43.41
2018-01-02T07:04:20.413Z,43.4
2018-01-02T07:05:29.355Z,43.32
2018-01-02T07:06:38.557Z,43.4
2018-01-02T07:07:47.239Z,43.2
2018-01-02T07:08:55.914Z,43.4
2018-01-02T07:10:04.589Z,43.3
2018-01-02T07:11:13.538Z,43.4
2018-01-02T07:12:22.468Z,43.23
2018-01-02T07:13:31.141Z,43.41
2018-01-02T07:14:40.076Z,43.2
2018-01-02T07:15:49.279Z,42.93
2018-01-02T07:16:57.949Z,43.11
2018-01-02T07:18:06.884Z,43.11
2018-01-02T07:19:15.566Z,42.91
2018-01-02T07:20:24.578Z,43.23
2018-01-02T07:21:33.517Z,43.13
2018-01-02T07:22:42.206Z,43.01
2018-01-02T07:23:51.138Z,43.2
2018-01-02T07:25:00.070Z,43.01
2018-01-02T07:26:09.005Z,43.13
2018-01-02T07:27:17.675Z,43.2
2018-01-02T07:28:26.866Z,43.2
2018-01-02T07:29:35.803Z,43.3
2018-01-02T07:30:44.732Z,43.11
2018-01-02T07:31:53.422Z,43.2
2018-01-02T07:33:02.885Z,43.2
2018-01-02T07:34:11.812Z,43.23
2018-01-02T07:35:21.009Z,43.23
2018-01-02T07:36:29.689Z,42.82
2018-01-02T07:37:38.634Z,42.72
2018-01-02T07:38:47.570Z,43.3
2018-01-02T07:39:56.780Z,42.72
2018-01-02T07:41:05.459Z,43.23
2018-01-02T07:42:14.659Z,43.11
2018-01-02T07:43:23.596Z,43.2
2018-01-02T07:44:32.534Z,42.82
2018-01-02T07:45:41.493Z,42.82
2018-01-02T07:46:50.427Z,42.91
2018-01-02T07:47:59.363Z,42.93
2018-01-02T07:49:08.036Z,43.2
2018-01-02T07:50:17.230Z,43.01
2018-01-02T07:51:26.442Z,42.65
2018-01-02T07:52:35.180Z,43.03
2018-01-02T07:53:43.791Z,42.65
2018-01-02T07:54:52.988Z,42.84
2018-01-02T07:56:01.659Z,42.65
2018-01-02T07:57:10.585Z,42.46
2018-01-02T07:58:20.052Z,42.26
2018-01-02T07:59:28.734Z,42.26
2018-01-02T08:00:37.414Z,42.07
2018-01-02T08:01:46.676Z,42.26
2018-01-02T08:02:55.620Z,41.89
2018-01-02T08:04:04.297Z,41.89
2018-01-02T08:05:13.507Z,41.61
2018-01-02T08:06:22.785Z,41.61
2018-01-02T08:07:31.994Z,41.71
2018-01-02T08:08:40.662Z,41.51
2018-01-02T08:09:49.862Z,41.8
2018-01-02T08:10:58.544Z,41.51
2018-01-02T08:12:07.491Z,41.13
2018-01-02T08:13:16.172Z,41.24
2018-01-02T08:14:25.437Z,41.14
2018-01-02T08:15:34.642Z,41.24
2018-01-02T08:16:43.316Z,40.86
2018-01-02T08:17:51.986Z,40.95
2018-01-02T08:19:01.188Z,40.95
2018-01-02T08:20:09.870Z,40.86
2018-01-02T08:21:18.813Z,40.66
2018-01-02T08:22:27.491Z,40.59
2018-01-02T08:23:36.700Z,40.69
2018-01-02T08:24:45.902Z,40.69
2018-01-02T08:25:55.092Z,40.49
2018-01-02T08:27:03.784Z,40.57
2018-01-02T08:28:12.468Z,40.49
2018-01-02T08:29:21.144Z,40.59
2018-01-02T08:30:30.080Z,40.69
2018-01-02T08:31:38.770Z,40.59
2018-01-02T08:32:47.442Z,40.59
2018-01-02T08:33:56.423Z,40.78
2018-01-02T08:35:06.196Z,40.59
2018-01-02T08:36:14.947Z,40.59
2018-01-02T08:37:23.916Z,40.59
2018-01-02T08:38:32.590Z,40.69
2018-01-02T08:39:41.795Z,40.59
2018-01-02T08:40:51.447Z,40.59
2018-01-02T08:42:00.922Z,40.69
2018-01-02T08:43:10.125Z,40.78
2018-01-02T08:44:19.038Z,40.78
2018-01-02T08:45:28.497Z,40.69
2018-01-02T08:46:37.537Z,40.69
2018-01-02T08:47:47.025Z,40.69
2018-01-02T08:48:55.978Z,40.59
2018-01-02T08:50:04.656Z,40.69
2018-01-02T08:51:13.612Z,40.88
2018-01-02T08:52:22.551Z,40.97
2018-01-02T08:53:31.245Z,40.97
2018-01-02T08:54:40.452Z,40.97
2018-01-02T08:55:49.656Z,40.88
2018-01-02T08:56:58.607Z,40.88
2018-01-02T08:58:07.800Z,41.07
2018-01-02T08:59:16.501Z,40.97
2018-01-02T09:00:25.441Z,41.07
2018-01-02T09:01:34.114Z,41.17
2018-01-02T09:02:42.787Z,41.17
2018-01-02T09:03:52.250Z,41.14
2018-01-02T09:05:01.186Z,41.36
2018-01-02T09:06:10.120Z,41.14
2018-01-02T09:07:18.794Z,41.36
2018-01-02T09:08:27.749Z,41.34
2018-01-02T09:09:36.467Z,41.24
2018-01-02T09:10:45.404Z,41.44
2018-01-02T09:11:54.600Z,41.36
2018-01-02T09:13:03.280Z,41.34
2018-01-02T09:14:11.953Z,41.36
2018-01-02T09:15:21.154Z,41.24
2018-01-02T09:16:30.604Z,41.14
2018-01-02T09:17:39.666Z,41.27
2018-01-02T09:18:48.354Z,41.27
2018-01-02T09:19:57.285Z,41.17
2018-01-02T09:21:06.216Z,41.17
2018-01-02T09:22:15.151Z,41.17
2018-01-02T09:23:24.349Z,40.97
2018-01-02T09:24:33.547Z,41.07
2018-01-02T09:25:42.748Z,41.05
2018-01-02T09:26:51.962Z,41.17
2018-01-02T09:28:01.154Z,41.07
2018-01-02T09:29:10.617Z,41.36
2018-01-02T09:30:20.094Z,41.17
2018-01-02T09:31:29.497Z,41.05
2018-01-02T09:32:38.967Z,40.97
2018-01-02T09:33:48.288Z,41.07
2018-01-02T09:34:57.831Z,41.17
2018-01-02T09:36:07.212Z,40.97
2018-01-02T09:37:16.741Z,41.07
2018-01-02T09:38:25.962Z,41.17
2018-01-02T09:39:35.430Z,40.88
2018-01-02T09:40:44.112Z,41.07
2018-01-02T09:41:53.571Z,41.07
2018-01-02T09:43:02.497Z,41.17
2018-01-02T09:44:11.691Z,41.17
2018-01-02T09:45:20.426Z,41.07
2018-01-02T09:46:30.313Z,41.07
2018-01-02T09:47:39.769Z,41.17
2018-01-02T09:48:48.983Z,41.17
2018-01-02T09:49:58.727Z,41.17
2018-01-02T09:51:07.725Z,41.27
2018-01-02T09:52:16.481Z,41.46
2018-01-02T09:53:25.416Z,41.55
2018-01-02T09:54:34.110Z,41.75
2018-01-02T09:55:43.305Z,41.84
2018-01-02T09:56:52.242Z,41.65
2018-01-02T09:58:01.285Z,41.65
2018-01-02T09:59:10.217Z,41.55
2018-01-02T10:00:19.160Z,41.75
2018-01-02T10:01:28.360Z,42.03
2018-01-02T10:02:37.300Z,41.65
2018-01-02T10:03:46.506Z,41.75
2018-01-02T10:04:56.226Z,41.75
2018-01-02T10:06:04.900Z,41.82
2018-01-02T10:07:13.845Z,41.75
2018-01-02T10:08:22.787Z,41.82
2018-01-02T10:09:32.034Z,41.75
2018-01-02T10:10:40.714Z,41.72
2018-01-02T10:11:50.423Z,42.13
2018-01-02T10:12:59.090Z,41.84
2018-01-02T10:14:08.027Z,42.02
2018-01-02T10:15:17.212Z,42.02
2018-01-02T10:16:25.919Z,41.92
2018-01-02T10:17:34.843Z,42.03
2018-01-02T10:18:43.768Z,41.72
2018-01-02T10:19:52.445Z,41.82
2018-01-02T10:21:01.117Z,42.03
2018-01-02T10:22:09.804Z,41.63
2018-01-02T10:23:18.998Z,41.63
2018-01-02T10:24:28.201Z,41.75
2018-01-02T10:25:37.152Z,41.75
2018-01-02T10:26:46.636Z,41.94
2018-01-02T10:27:55.317Z,41.92
2018-01-02T10:29:04.775Z,41.72
2018-01-02T10:30:14.222Z,41.72
2018-01-02T10:31:23.674Z,41.82
2018-01-02T10:32:32.864Z,42.02
2018-01-02T10:33:42.067Z,41.75
2018-01-02T10:34:50.740Z,41.65
2018-01-02T10:35:59.677Z,41.94
2018-01-02T10:37:08.357Z,41.84
2018-01-02T10:38:17.294Z,41.75
2018-01-02T10:39:26.825Z,41.65
2018-01-02T10:40:36.485Z,41.63
2018-01-02T10:41:45.679Z,41.65
2018-01-02T10:42:54.877Z,42.02
2018-01-02T10:44:03.813Z,41.94
2018-01-02T10:45:12.745Z,41.94
2018-01-02T10:46:21.678Z,41.75
2018-01-02T10:47:30.421Z,41.84
2018-01-02T10:48:39.349Z,41.84
2018-01-02T10:49:48.020Z,42.3
2018-01-02T10:50:56.954Z,42.11
2018-01-02T10:52:05.891Z,41.92
2018-01-02T10:53:14.564Z,42.11
2018-01-02T10:54:23.752Z,41.82
2018-01-02T10:55:32.681Z,41.92
2018-01-02T10:56:41.963Z,41.82
2018-01-02T10:57:50.896Z,41.92
2018-01-02T10:59:00.093Z,41.92
2018-01-02T11:00:08.772Z,42.02
2018-01-02T11:01:17.438Z,42.11
2018-01-02T11:02:26.374Z,42.02
2018-01-02T11:03:35.056Z,42.21
2018-01-02T11:04:43.727Z,42.21
2018-01-02T11:05:52.686Z,42.02
2018-01-02T11:07:01.379Z,42.21
2018-01-02T11:08:10.313Z,42.11
2018-01-02T11:09:19.345Z,42.11
2018-01-02T11:10:28.543Z,42.21
2018-01-02T11:11:37.209Z,42.11
2018-01-02T11:12:46.667Z,42.21
2018-01-02T11:13:55.887Z,42.02
2018-01-02T11:15:05.782Z,42.21
2018-01-02T11:16:14.765Z,42.11
2018-01-02T11:17:23.758Z,42.02
2018-01-02T11:18:32.713Z,42.13
2018-01-02T11:19:41.394Z,42.02
2018-01-02T11:20:50.582Z,42.02
2018-01-02T11:21:59.784Z,42.02
2018-01-02T11:23:08.534Z,42.02
2018-01-02T11:24:17.466Z,42.03
2018-01-02T11:25:26.148Z,42.11
2018-01-02T11:26:35.084Z,42.02
2018-01-02T11:27:44.276Z,42.11
2018-01-02T11:28:53.025Z,42.02
2018-01-02T11:30:02.501Z,42.3
2018-01-02T11:31:11.441Z,42.3
2018-01-02T11:32:20.382Z,42.3
2018-01-02T11:33:29.055Z,42.11
2018-01-02T11:34:38.007Z,42.11
2018-01-02T11:35:46.690Z,42.21
2018-01-02T11:36:55.648Z,42.21
2018-01-02T11:38:04.584Z,42.4
2018-01-02T11:39:13.524Z,42.3
2018-01-02T11:40:22.467Z,42.59
2018-01-02T11:41:31.410Z,42.21
2018-01-02T11:42:40.079Z,42.59
2018-01-02T11:43:48.750Z,42.4
2018-01-02T11:44:57.419Z,42.3
2018-01-02T11:46:06.358Z,42.49
2018-01-02T11:47:15.298Z,42.3
2018-01-02T11:48:24.244Z,42.3
2018-01-02T11:49:33.710Z,42.3
2018-01-02T11:50:42.391Z,42.21
2018-01-02T11:51:51.343Z,42.59
2018-01-02T11:53:00.017Z,42.4
2018-01-02T11:54:09.219Z,42.4
2018-01-02T11:55:18.419Z,42.49
2018-01-02T11:56:27.885Z,42.59
2018-01-02T11:57:36.812Z,42.59
2018-01-02T11:58:46.050Z,42.59
2018-01-02T11:59:54.992Z,42.79
2018-01-02T12:01:04.186Z,42.69
2018-01-02T12:02:13.370Z,42.79
2018-01-02T12:03:22.057Z,42.79
2018-01-02T12:04:31.515Z,42.79
2018-01-02T12:05:40.193Z,42.59
2018-01-02T12:06:49.123Z,42.79
2018-01-02T12:07:57.796Z,42.59
2018-01-02T12:09:06.463Z,42.79
2018-01-02T12:10:15.216Z,42.79
2018-01-02T12:11:24.159Z,42.69
2018-01-02T12:12:32.835Z,42.69
2018-01-02T12:13:42.037Z,42.79
2018-01-02T12:14:50.719Z,42.59
2018-01-02T12:16:00.174Z,42.79
2018-01-02T12:17:08.848Z,42.49
2018-01-02T12:18:17.515Z,42.69
2018-01-02T12:19:26.444Z,42.49
2018-01-02T12:20:35.899Z,42.4
2018-01-02T12:21:45.095Z,42.49
2018-01-02T12:22:54.026Z,42.4
2018-01-02T12:24:02.965Z,42.4
2018-01-02T12:25:12.168Z,42.69
2018-01-02T12:26:21.095Z,42.59
2018-01-02T12:27:30.041Z,42.49
2018-01-02T12:28:38.974Z,42.4
2018-01-02T12:29:48.178Z,42.69
2018-01-02T12:30:57.371Z,42.4
2018-01-02T12:32:06.631Z,42.59
2018-01-02T12:33:15.815Z,42.59
2018-01-02T12:34:24.496Z,42.59
2018-01-02T12:35:33.495Z,42.49
2018-01-02T12:36:42.431Z,42.3
2018-01-02T12:37:51.363Z,42.49
2018-01-02T12:39:00.307Z,42.3
2018-01-02T12:40:09.770Z,42.21
2018-01-02T12:41:18.703Z,42.3
2018-01-02T12:42:27.408Z,42.4
2018-01-02T12:43:36.593Z,42.4
2018-01-02T12:44:45.620Z,42.49
2018-01-02T12:45:54.290Z,42.3
2018-01-02T12:47:03.226Z,42.3
2018-01-02T12:48:12.426Z,42.59
2018-01-02T12:49:21.370Z,42.49
2018-01-02T12:50:30.919Z,42.3
2018-01-02T12:51:40.120Z,42.4
2018-01-02T12:52:49.054Z,42.49
2018-01-02T12:53:58.256Z,42.4
2018-01-02T12:55:07.205Z,42.4
2018-01-02T12:56:16.144Z,42.49
2018-01-02T12:57:25.371Z,42.4
2018-01-02T12:58:34.577Z,42.02
2018-01-02T12:59:43.252Z,42.3
2018-01-02T13:00:52.439Z,42.11
2018-01-02T13:02:02.444Z,42.59
2018-01-02T13:03:11.395Z,42.49
2018-01-02T13:04:20.348Z,42.21
2018-01-02T13:05:29.805Z,42.21
2018-01-02T13:06:38.479Z,42.49
2018-01-02T13:07:47.408Z,42.49
2018-01-02T13:08:56.355Z,42.59
2018-01-02T13:10:05.297Z,42.69
2018-01-02T13:11:14.865Z,42.4
2018-01-02T13:12:23.540Z,42.49
2018-01-02T13:13:33.034Z,42.69
2018-01-02T13:14:42.356Z,42.79
2018-01-02T13:15:51.380Z,42.69
2018-01-02T13:17:00.847Z,42.69
2018-01-02T13:18:09.783Z,42.69
2018-01-02T13:19:18.722Z,42.69
2018-01-02T13:20:27.659Z,42.59
2018-01-02T13:21:36.855Z,42.57
2018-01-02T13:22:46.309Z,42.69
2018-01-02T13:23:55.235Z,42.76
2018-01-02T13:25:04.169Z,42.57
2018-01-02T13:26:13.104Z,42.76
2018-01-02T13:27:21.774Z,42.76
2018-01-02T13:28:30.476Z,42.69
2018-01-02T13:29:39.690Z,42.76
2018-01-02T13:30:48.886Z,42.76
2018-01-02T13:31:57.828Z,42.67
2018-01-02T13:33:06.764Z,42.69
2018-01-02T13:34:15.962Z,42.69
2018-01-02T13:35:24.641Z,42.57
2018-01-02T13:36:33.836Z,42.69
2018-01-02T13:37:42.515Z,42.57
2018-01-02T13:38:51.452Z,42.69
2018-01-02T13:40:00.643Z,42.76
2018-01-02T13:41:09.573Z,42.79
2018-01-02T13:42:18.775Z,42.76
2018-01-02T13:43:27.466Z,42.57
2018-01-02T13:44:36.464Z,42.57
2018-01-02T13:45:45.955Z,42.96
2018-01-02T13:46:55.282Z,42.76
2018-01-02T13:48:04.869Z,42.57
2018-01-02T13:49:13.803Z,42.67
2018-01-02T13:50:22.738Z,42.57
2018-01-02T13:51:32.069Z,42.59
2018-01-02T13:52:40.750Z,42.38
2018-01-02T13:53:49.436Z,42.59
2018-01-02T13:54:58.256Z,42.49
2018-01-02T13:56:07.548Z,42.4
2018-01-02T13:57:17.257Z,42.67
2018-01-02T13:58:26.833Z,42.67
2018-01-02T13:59:36.354Z,42.28
2018-01-02T14:00:45.553Z,42.49
2018-01-02T14:01:54.765Z,42.49
2018-01-02T14:03:03.569Z,42.49
2018-01-02T14:04:12.510Z,42.47
2018-01-02T14:05:22.050Z,42.4
2018-01-02T14:06:31.006Z,42.47
2018-01-02T14:07:40.329Z,42.38
2018-01-02T14:08:49.287Z,42.47
2018-01-02T14:09:58.638Z,42.49
2018-01-02T14:11:08.349Z,42.47
2018-01-02T14:12:17.104Z,42.38
2018-01-02T14:13:25.905Z,42.38
2018-01-02T14:14:34.674Z,42.47
2018-01-02T14:15:43.607Z,42.47
2018-01-02T14:16:53.644Z,42.47
2018-01-02T14:18:04.422Z,42.38
2018-01-02T14:19:13.100Z,42.57
2018-01-02T14:20:22.466Z,42.47
2018-01-02T14:21:31.439Z,42.76
2018-01-02T14:22:40.648Z,42.76
2018-01-02T14:23:49.465Z,42.76
2018-01-02T14:24:59.046Z,42.76
2018-01-02T14:26:08.258Z,42.76
2018-01-02T14:27:17.458Z,42.57
2018-01-02T14:28:26.921Z,42.67
2018-01-02T14:29:37.102Z,42.76
2018-01-02T14:30:47.971Z,42.67
2018-01-02T14:31:57.173Z,42.57
2018-01-02T14:33:06.034Z,42.76
2018-01-02T14:34:14.966Z,42.76
2018-01-02T14:35:24.372Z,42.76
2018-01-02T14:36:33.603Z,42.67
2018-01-02T14:37:43.888Z,42.57
2018-01-02T14:38:53.100Z,42.67
2018-01-02T14:40:01.958Z,42.76
2018-01-02T14:41:11.039Z,42.67
2018-01-02T14:42:21.045Z,42.76
2018-01-02T14:43:30.323Z,42.76
2018-01-02T14:44:40.819Z,42.76
2018-01-02T14:45:49.757Z,42.86
2018-01-02T14:46:59.014Z,42.76
2018-01-02T14:48:08.476Z,42.76
2018-01-02T14:49:17.159Z,42.86
2018-01-02T14:50:26.714Z,42.76
2018-01-02T14:51:35.401Z,42.76
2018-01-02T14:52:44.350Z,42.67
2018-01-02T14:53:53.036Z,42.76
2018-01-02T14:55:02.791Z,42.67
2018-01-02T14:56:11.969Z,42.57
2018-01-02T14:57:20.918Z,42.38